Time;durP1;ratioP1;P1;durP2;ratioP2;P2;SDS_P1;SDS_P2;PMS_P1;PMS_P2;Temp;Humidity;BMP_temperature;BMP_pressure;BME280_temperature;BME280_humidity;BME280_pressure;Samples;Min_cycle;Max_cycle;Signal;HPM_P1;HPM_P2
2021/12/30 00:01:45;;;;;;;6.95;1.10;;;10.80;99.90;;;;;;5023899;28;20379;-87
2021/12/30 00:04:11;;;;;;;5.38;1.38;;;10.80;99.90;;;;;;5052079;28;20029;-87
2021/12/30 00:06:40;;;;;;;8.75;1.40;;;10.80;99.90;;;;;;5053492;28;20227;-87
2021/12/30 00:09:08;;;;;;;5.72;1.00;;;10.80;99.90;;;;;;5022099;28;20040;-87
2021/12/30 00:11:37;;;;;;;6.22;1.10;;;10.80;99.90;;;;;;5037504;28;20044;-87
2021/12/30 00:14:03;;;;;;;5.80;1.02;;;10.80;99.90;;;;;;5037589;28;20033;-87
2021/12/30 00:16:29;;;;;;;5.00;1.30;;;10.80;99.90;;;;;;5032349;28;20056;-87
2021/12/30 00:18:55;;;;;;;9.75;1.33;;;10.80;99.90;;;;;;5047023;28;20035;-88
2021/12/30 00:21:24;;;;;;;6.05;1.00;;;10.80;99.90;;;;;;5051061;28;20029;-86
2021/12/30 00:23:50;;;;;;;9.18;1.00;;;10.80;99.90;;;;;;5029687;28;20145;-86
2021/12/30 00:26:17;;;;;;;7.60;1.27;;;10.80;99.90;;;;;;5037009;28;20033;-87
2021/12/30 00:28:42;;;;;;;2.58;0.85;;;10.80;99.90;;;;;;5068989;28;20115;-87
2021/12/30 00:31:08;;;;;;;5.95;0.80;;;10.80;99.90;;;;;;5050886;28;20127;-87
2021/12/30 00:33:34;;;;;;;9.27;1.17;;;10.70;99.90;;;;;;5014211;28;20501;-87
2021/12/30 00:36:02;;;;;;;4.72;1.17;;;10.70;99.90;;;;;;4997239;28;20036;-87
2021/12/30 00:38:29;;;;;;;4.40;1.30;;;10.70;99.90;;;;;;5023683;28;20020;-87
2021/12/30 00:40:54;;;;;;;1.40;0.98;;;10.70;99.90;;;;;;5053349;28;20120;-87
2021/12/30 00:43:23;;;;;;;2.92;1.08;;;10.70;99.90;;;;;;5051412;28;20139;-87
2021/12/30 00:45:48;;;;;;;3.95;1.08;;;10.70;99.90;;;;;;5033712;28;20500;-87
2021/12/30 00:48:14;;;;;;;3.40;1.10;;;10.70;99.90;;;;;;5047990;28;20028;-86
2021/12/30 00:50:42;;;;;;;6.45;1.20;;;10.70;99.90;;;;;;5044396;28;20033;-87
2021/12/30 00:53:09;;;;;;;5.88;1.52;;;10.70;99.90;;;;;;5027712;28;20025;-87
2021/12/30 00:55:39;;;;;;;8.88;1.27;;;10.70;99.90;;;;;;5052616;28;20024;-87
2021/12/30 00:58:09;;;;;;;4.32;0.93;;;10.70;99.90;;;;;;5043318;28;20033;-87
2021/12/30 01:00:36;;;;;;;5.73;1.43;;;10.70;99.90;;;;;;5042235;28;20409;-87
2021/12/30 01:03:02;;;;;;;6.13;1.95;;;10.70;99.90;;;;;;5034620;28;20321;-87
2021/12/30 01:05:29;;;;;;;5.45;1.17;;;10.70;99.90;;;;;;5049784;28;20034;-87
2021/12/30 01:07:56;;;;;;;3.42;1.30;;;10.80;99.90;;;;;;5036784;28;20061;-87
2021/12/30 01:10:25;;;;;;;6.97;1.33;;;10.70;99.90;;;;;;5018847;28;20068;-87
2021/12/30 01:12:55;;;;;;;5.03;1.33;;;10.70;99.90;;;;;;5032019;28;20493;-87
2021/12/30 01:15:34;;;;;;;12.00;1.58;;;10.70;99.90;;;;;;5050596;28;20053;-87
2021/12/30 01:18:24;;;;;;;7.15;1.90;;;10.70;99.90;;;;;;5049414;28;20032;-87
2021/12/30 01:20:52;;;;;;;7.65;1.25;;;10.70;99.90;;;;;;5038607;28;20040;-87
2021/12/30 01:23:17;;;;;;;7.88;1.77;;;10.70;99.90;;;;;;5033468;28;20033;-87
2021/12/30 01:25:43;;;;;;;3.70;1.33;;;10.60;99.90;;;;;;5033481;28;20511;-87
2021/12/30 01:28:18;;;;;;;6.97;1.65;;;10.60;99.90;;;;;;5049622;28;20025;-87
2021/12/30 01:30:47;;;;;;;10.80;1.95;;;10.60;99.90;;;;;;5036017;28;20488;-87
2021/12/30 01:33:13;;;;;;;9.75;1.90;;;10.60;99.90;;;;;;5052376;28;20024;-87
2021/12/30 01:35:39;;;;;;;12.27;2.00;;;10.50;99.90;;;;;;5051165;28;20025;-87
2021/12/30 01:38:11;;;;;;;8.10;1.70;;;10.50;99.90;;;;;;5035657;28;20374;-87
2021/12/30 01:40:37;;;;;;;3.72;1.27;;;10.50;99.90;;;;;;5020977;28;20048;-87
2021/12/30 01:43:02;;;;;;;2.08;1.30;;;10.50;99.90;;;;;;5042412;28;20020;-87
2021/12/30 01:45:31;;;;;;;6.25;1.35;;;10.50;99.90;;;;;;5040419;28;20033;-87
2021/12/30 01:48:03;;;;;;;6.03;1.45;;;10.40;99.90;;;;;;5001123;28;20029;-87
2021/12/30 01:50:35;;;;;;;5.53;1.67;;;10.50;99.90;;;;;;4997505;28;20114;-87
2021/12/30 01:53:03;;;;;;;12.65;2.13;;;10.50;99.90;;;;;;5024787;28;20036;-87
2021/12/30 01:55:30;;;;;;;8.07;2.03;;;10.50;99.90;;;;;;5031404;28;20052;-87
2021/12/30 01:58:01;;;;;;;7.97;1.77;;;10.60;99.90;;;;;;5010081;28;20054;-87
2021/12/30 02:00:31;;;;;;;;;;;10.60;99.90;;;;;;5051863;28;20094;-87
2021/12/30 02:02:58;;;;;;;5.93;1.63;;;10.60;99.90;;;;;;5050974;28;20326;-87
2021/12/30 02:05:24;;;;;;;5.90;1.88;;;10.70;99.90;;;;;;5021132;28;20041;-87
2021/12/30 02:07:50;;;;;;;7.90;1.88;;;10.70;99.90;;;;;;5016028;28;20043;-87
2021/12/30 02:10:16;;;;;;;10.23;2.03;;;10.80;99.90;;;;;;5016220;28;20516;-87
2021/12/30 02:12:46;;;;;;;5.25;2.15;;;10.80;99.90;;;;;;5018355;28;20041;-86
2021/12/30 02:15:15;;;;;;;11.23;1.83;;;10.80;99.90;;;;;;5026479;28;20044;-87
2021/12/30 02:17:47;;;;;;;8.68;2.05;;;10.80;99.90;;;;;;5038977;28;20426;-86
2021/12/30 02:20:43;;;;;;;6.13;2.03;;;10.90;99.90;;;;;;5035945;28;20036;-87
2021/12/30 02:23:09;;;;;;;11.27;2.42;;;10.90;99.90;;;;;;5050435;28;20029;-87
2021/12/30 02:25:35;;;;;;;5.05;2.38;;;10.90;99.90;;;;;;5031998;28;20029;-87
2021/12/30 02:28:13;;;;;;;7.82;2.38;;;10.90;99.90;;;;;;5018235;28;20062;-87
2021/12/30 02:30:41;;;;;;;5.93;2.28;;;11.00;99.90;;;;;;5052255;28;20486;-87
2021/12/30 02:33:07;;;;;;;5.93;2.50;;;11.00;99.90;;;;;;5031996;28;20400;-86
2021/12/30 02:35:33;;;;;;;7.78;1.90;;;11.00;99.90;;;;;;5015300;28;20510;-87
2021/12/30 02:38:17;;;;;;;8.88;2.20;;;11.00;99.90;;;;;;5017328;28;20031;-87
2021/12/30 02:40:50;;;;;;;6.50;1.90;;;11.00;99.90;;;;;;5017932;28;20030;-87
2021/12/30 02:43:22;;;;;;;7.25;2.30;;;11.10;99.90;;;;;;5017186;28;20497;-87
2021/12/30 02:45:51;;;;;;;8.13;2.40;;;11.10;99.90;;;;;;5049570;28;20021;-87
2021/12/30 02:48:37;;;;;;;9.32;2.50;;;11.10;99.90;;;;;;5025908;28;20036;-87
2021/12/30 02:51:07;;;;;;;9.60;1.73;;;11.10;99.90;;;;;;5022607;28;20035;-88
2021/12/30 02:53:33;;;;;;;4.22;1.90;;;11.10;99.90;;;;;;5032134;28;20041;-87
2021/12/30 02:55:59;;;;;;;4.28;1.88;;;11.10;99.90;;;;;;5019361;28;20378;-87
2021/12/30 02:58:28;;;;;;;6.40;1.83;;;11.10;99.90;;;;;;5025362;28;20128;-87
2021/12/30 03:01:17;;;;;;;4.00;2.03;;;11.20;99.90;;;;;;5053734;28;20042;-87
2021/12/30 03:03:43;;;;;;;3.53;1.55;;;11.20;99.90;;;;;;5048615;28;20116;-87
2021/12/30 03:06:12;;;;;;;3.47;1.73;;;11.20;99.90;;;;;;5053057;28;20283;-87
2021/12/30 03:08:37;;;;;;;8.25;1.60;;;11.20;99.90;;;;;;5051960;28;20048;-88
2021/12/30 03:11:03;;;;;;;4.80;1.85;;;11.20;99.90;;;;;;5045682;28;20088;-87
2021/12/30 03:13:33;;;;;;;2.35;1.48;;;11.30;99.90;;;;;;5015661;28;20029;-87
2021/12/30 03:16:11;;;;;;;1.40;1.25;;;11.30;99.90;;;;;;5044306;28;20028;-87
2021/12/30 03:18:37;;;;;;;5.82;1.30;;;11.30;99.90;;;;;;5042798;28;20493;-88
2021/12/30 03:21:06;;;;;;;8.38;1.40;;;11.30;99.90;;;;;;5035786;28;20460;-88
2021/12/30 03:23:38;;;;;;;6.55;1.25;;;11.30;99.90;;;;;;5037878;28;20025;-87
2021/12/30 03:26:05;;;;;;;3.08;1.13;;;11.30;99.90;;;;;;5035005;28;20078;-87
2021/12/30 03:28:32;;;;;;;4.47;1.30;;;11.30;99.90;;;;;;5079422;28;20040;-88
2021/12/30 03:31:04;;;;;;;3.67;1.30;;;11.30;99.90;;;;;;5072968;28;20028;-87
2021/12/30 03:33:36;;;;;;;5.53;1.27;;;11.30;99.90;;;;;;5049313;28;20031;-87
2021/12/30 03:36:04;;;;;;;3.28;0.88;;;11.30;99.90;;;;;;5034402;28;20021;-86
2021/12/30 03:38:32;;;;;;;5.75;1.35;;;11.30;99.90;;;;;;5044899;28;20074;-87
2021/12/30 03:40:58;;;;;;;2.63;1.10;;;11.30;99.90;;;;;;5038642;28;20512;-88
2021/12/30 03:43:24;;;;;;;1.88;1.20;;;11.30;99.90;;;;;;5017007;28;20042;-87
2021/12/30 03:45:50;;;;;;;1.65;1.10;;;11.30;99.90;;;;;;5044748;28;20074;-87
2021/12/30 03:48:16;;;;;;;3.83;1.00;;;11.20;99.90;;;;;;5051715;28;20493;-87
2021/12/30 03:50:49;;;;;;;1.45;1.05;;;11.30;99.90;;;;;;5050889;28;20025;-88
2021/12/30 03:53:16;;;;;;;2.92;1.20;;;11.30;99.90;;;;;;5035338;28;20033;-87
2021/12/30 03:55:46;;;;;;;1.10;0.50;;;11.30;99.90;;;;;;5050016;28;20123;-87
2021/12/30 03:58:12;;;;;;;1.08;0.60;;;11.30;99.90;;;;;;5019416;28;20039;-86
2021/12/30 04:00:38;;;;;;;4.10;0.80;;;11.30;99.90;;;;;;5001721;28;20127;-86
2021/12/30 04:03:04;;;;;;;3.55;0.63;;;11.30;99.90;;;;;;5022096;28;20033;-87
2021/12/30 04:05:30;;;;;;;1.25;0.63;;;11.30;99.90;;;;;;5053746;28;20067;-88
2021/12/30 04:07:56;;;;;;;4.55;0.70;;;11.30;99.90;;;;;;5037499;28;20407;-87
2021/12/30 04:10:22;;;;;;;1.30;0.60;;;11.40;99.90;;;;;;5035357;28;20029;-87
2021/12/30 04:12:49;;;;;;;1.95;0.80;;;11.40;99.90;;;;;;5035121;28;20033;-87
2021/12/30 04:15:15;;;;;;;2.83;0.60;;;11.40;99.90;;;;;;5033754;28;20036;-87
2021/12/30 04:17:43;;;;;;;0.43;0.40;;;11.40;99.90;;;;;;5019853;28;20029;-88
2021/12/30 04:20:11;;;;;;;0.50;0.38;;;11.40;99.90;;;;;;5037595;28;20473;-87
2021/12/30 04:22:38;;;;;;;2.17;0.38;;;11.40;99.90;;;;;;5035300;28;20123;-87
2021/12/30 04:25:09;;;;;;;0.82;0.50;;;11.40;99.90;;;;;;5039417;28;20025;-87
2021/12/30 04:27:35;;;;;;;0.30;0.30;;;11.40;99.90;;;;;;5036445;28;20488;-87
2021/12/30 04:30:03;;;;;;;0.30;0.30;;;11.50;99.90;;;;;;5037746;28;20252;-87
2021/12/30 04:32:28;;;;;;;1.38;0.47;;;11.50;99.90;;;;;;5038257;28;20021;-87
2021/12/30 04:34:54;;;;;;;0.30;0.25;;;11.50;99.90;;;;;;5041892;28;20040;-87
2021/12/30 04:37:20;;;;;;;0.22;0.22;;;11.60;99.90;;;;;;5046655;28;20035;-88
2021/12/30 04:39:46;;;;;;;0.45;0.30;;;11.60;99.90;;;;;;5071957;28;20029;-87
2021/12/30 04:42:12;;;;;;;0.40;0.30;;;11.60;99.90;;;;;;5040439;28;20028;-87
2021/12/30 04:44:37;;;;;;;0.70;0.50;;;11.60;99.90;;;;;;5017899;28;20059;-87
2021/12/30 04:47:03;;;;;;;0.40;0.40;;;11.60;99.90;;;;;;5002320;28;20236;-87
2021/12/30 04:49:29;;;;;;;1.80;0.40;;;11.70;99.90;;;;;;5015780;28;20128;-87
2021/12/30 04:51:54;;;;;;;0.30;0.30;;;11.70;99.90;;;;;;5000139;28;20551;-87
2021/12/30 04:54:20;;;;;;;0.40;0.30;;;11.70;99.90;;;;;;5039813;28;20041;-87
2021/12/30 04:56:50;;;;;;;2.08;0.40;;;11.70;99.90;;;;;;5047366;28;20053;-87
2021/12/30 04:59:16;;;;;;;;;;;11.70;99.90;;;;;;5021538;28;20045;-87
2021/12/30 05:01:42;;;;;;;0.20;0.20;;;11.70;99.90;;;;;;5017378;28;19968;-88
2021/12/30 05:04:07;;;;;;;0.30;0.30;;;11.70;99.90;;;;;;5037484;28;20037;-87
2021/12/30 05:06:36;;;;;;;0.60;0.43;;;11.70;99.90;;;;;;5016837;28;20029;-87
2021/12/30 05:09:02;;;;;;;0.30;0.30;;;11.70;99.90;;;;;;5036715;28;20044;-87
2021/12/30 05:11:31;;;;;;;0.30;0.30;;;11.70;99.90;;;;;;5028998;28;20033;-87
2021/12/30 05:13:56;;;;;;;1.60;0.40;;;11.70;99.90;;;;;;5036647;28;20041;-87
2021/12/30 05:16:23;;;;;;;0.47;0.30;;;11.80;99.90;;;;;;5025724;28;20055;-87
2021/12/30 05:18:54;;;;;;;0.95;0.40;;;11.80;99.90;;;;;;5019636;28;20413;-87
2021/12/30 05:21:23;;;;;;;0.52;0.50;;;11.80;99.90;;;;;;5023887;28;20020;-87
2021/12/30 05:23:49;;;;;;;0.52;0.20;;;11.80;99.90;;;;;;5034979;28;20036;-87
2021/12/30 05:26:18;;;;;;;0.70;0.43;;;11.80;99.90;;;;;;5019746;28;20029;-87
2021/12/30 05:28:47;;;;;;;0.28;0.28;;;11.80;99.90;;;;;;5017124;28;20032;-87
2021/12/30 05:31:12;;;;;;;0.32;0.30;;;11.80;99.90;;;;;;5019378;28;20402;-87
2021/12/30 05:33:38;;;;;;;0.32;0.32;;;11.80;99.90;;;;;;5028270;28;20032;-87
2021/12/30 05:36:04;;;;;;;0.47;0.40;;;11.80;99.90;;;;;;5050473;28;20186;-87
2021/12/30 05:38:31;;;;;;;3.35;0.60;;;11.80;99.90;;;;;;5047915;28;20021;-87
2021/12/30 05:40:57;;;;;;;3.53;0.70;;;11.80;99.90;;;;;;5033748;28;20021;-87
2021/12/30 05:43:22;;;;;;;3.30;0.50;;;11.80;99.90;;;;;;5016225;28;20033;-87
2021/12/30 05:45:48;;;;;;;1.17;0.45;;;11.90;99.90;;;;;;5022988;28;20034;-87
2021/12/30 05:48:17;;;;;;;0.22;0.20;;;11.80;99.90;;;;;;5015683;28;20059;-87
2021/12/30 05:50:43;;;;;;;0.45;0.28;;;11.80;99.90;;;;;;5033402;28;20112;-87
2021/12/30 05:53:12;;;;;;;0.40;0.40;;;11.80;99.90;;;;;;5032864;28;20115;-86
2021/12/30 05:55:38;;;;;;;0.40;0.40;;;11.80;99.90;;;;;;5031941;28;20403;-87
2021/12/30 05:58:04;;;;;;;0.38;0.30;;;11.90;99.90;;;;;;5042332;28;20024;-87
2021/12/30 06:00:33;;;;;;;0.50;0.30;;;11.90;99.90;;;;;;5015938;28;20025;-87
2021/12/30 06:03:05;;;;;;;0.30;0.30;;;11.90;99.90;;;;;;5030932;28;20114;-87
2021/12/30 06:05:31;;;;;;;0.55;0.30;;;11.90;99.90;;;;;;5015543;28;20079;-87
2021/12/30 06:07:57;;;;;;;0.43;0.38;;;11.90;99.90;;;;;;5012116;28;20033;-87
2021/12/30 06:10:22;;;;;;;0.40;0.28;;;11.90;99.90;;;;;;5030498;28;20104;-87
2021/12/30 06:12:48;;;;;;;0.30;0.30;;;11.90;99.90;;;;;;5033026;28;20539;-88
2021/12/30 06:15:14;;;;;;;0.40;0.38;;;11.90;99.90;;;;;;5034235;28;20559;-87
2021/12/30 06:17:41;;;;;;;0.20;0.20;;;11.90;99.90;;;;;;5020353;28;20441;-86
2021/12/30 06:20:09;;;;;;;0.77;0.45;;;11.90;99.90;;;;;;5045758;28;20060;-87
2021/12/30 06:22:35;;;;;;;0.30;0.30;;;11.90;99.90;;;;;;5032935;28;20085;-87
2021/12/30 06:25:02;;;;;;;0.30;0.30;;;11.90;99.90;;;;;;5041736;28;20032;-87
2021/12/30 06:27:28;;;;;;;4.30;0.40;;;11.90;99.90;;;;;;5050028;28;20400;-87
2021/12/30 06:29:53;;;;;;;1.77;0.30;;;11.90;99.90;;;;;;5058162;28;20024;-87
2021/12/30 06:32:19;;;;;;;2.55;0.20;;;11.90;99.90;;;;;;5008804;28;20128;-87
2021/12/30 06:34:44;;;;;;;0.55;0.40;;;11.80;99.90;;;;;;5038748;28;20039;-87
2021/12/30 06:37:11;;;;;;;0.30;0.30;;;11.90;99.90;;;;;;5018488;28;20087;-87
2021/12/30 06:39:37;;;;;;;0.52;0.40;;;11.90;99.90;;;;;;5019278;28;20052;-88
2021/12/30 06:42:09;;;;;;;0.30;0.30;;;11.90;99.90;;;;;;5026895;28;20112;-87
2021/12/30 06:44:40;;;;;;;4.13;0.50;;;11.90;99.90;;;;;;5042800;28;20464;-87
2021/12/30 06:47:06;;;;;;;2.20;0.65;;;11.90;99.90;;;;;;5065951;28;20421;-87
2021/12/30 06:49:38;;;;;;;0.50;0.38;;;11.90;99.90;;;;;;5038705;28;20098;-87
2021/12/30 06:52:11;;;;;;;0.70;0.40;;;11.90;99.90;;;;;;5037960;28;20025;-87
2021/12/30 06:54:38;;;;;;;1.65;0.40;;;11.90;99.90;;;;;;5035177;28;20460;-87
2021/12/30 06:57:06;;;;;;;3.83;0.60;;;11.90;99.90;;;;;;5048797;28;20040;-87
2021/12/30 06:59:32;;;;;;;0.32;0.32;;;11.90;99.90;;;;;;5003203;28;20045;-87
2021/12/30 07:01:58;;;;;;;0.93;0.50;;;11.90;99.90;;;;;;5055313;28;20662;-87
2021/12/30 07:04:25;;;;;;;1.13;0.47;;;11.90;99.90;;;;;;5038495;28;20080;-87
2021/12/30 07:06:52;;;;;;;0.40;0.40;;;11.90;99.90;;;;;;5022332;28;20036;-87
2021/12/30 07:09:18;;;;;;;0.75;0.60;;;11.90;99.90;;;;;;5025850;28;20036;-86
2021/12/30 07:11:43;;;;;;;1.75;0.60;;;11.90;99.90;;;;;;5019178;28;20172;-87
2021/12/30 07:14:10;;;;;;;5.47;0.50;;;11.90;99.90;;;;;;5019060;28;20036;-88
2021/12/30 07:16:36;;;;;;;0.80;0.70;;;11.90;99.90;;;;;;5038038;28;20041;-88
2021/12/30 07:19:02;;;;;;;0.77;0.50;;;12.00;99.90;;;;;;5047486;28;20017;-87
2021/12/30 07:21:28;;;;;;;0.85;0.47;;;11.90;99.90;;;;;;5039129;28;20082;-88
2021/12/30 07:23:53;;;;;;;0.95;0.70;;;11.90;99.90;;;;;;5057759;28;20454;-88
2021/12/30 07:26:19;;;;;;;2.80;0.90;;;11.90;99.90;;;;;;5051676;28;20024;-88
2021/12/30 07:28:45;;;;;;;0.50;0.50;;;11.90;99.90;;;;;;5017209;28;20408;-87
2021/12/30 07:31:11;;;;;;;1.23;0.60;;;12.00;99.90;;;;;;5037344;28;20039;-87
2021/12/30 07:33:38;;;;;;;2.97;0.77;;;12.00;99.90;;;;;;5039565;28;20032;-88
2021/12/30 07:36:04;;;;;;;0.40;0.40;;;12.00;99.90;;;;;;5045028;28;20029;-87
2021/12/30 07:38:29;;;;;;;0.65;0.65;;;12.00;99.90;;;;;;5022986;28;20120;-87
2021/12/30 07:40:55;;;;;;;3.42;0.68;;;12.00;99.90;;;;;;5050101;28;20029;-87
2021/12/30 07:43:21;;;;;;;3.20;0.50;;;12.00;99.90;;;;;;5029762;28;20045;-88
2021/12/30 07:45:46;;;;;;;2.22;0.60;;;12.00;99.90;;;;;;5020985;28;20032;-87
2021/12/30 07:48:12;;;;;;;6.43;0.60;;;12.00;99.90;;;;;;5056930;28;20507;-87
2021/12/30 07:50:38;;;;;;;0.98;0.50;;;12.00;99.90;;;;;;5042343;28;20059;-87
2021/12/30 07:53:06;;;;;;;2.30;0.68;;;12.00;99.90;;;;;;5040778;28;20035;-87
2021/12/30 07:55:35;;;;;;;4.57;1.85;;;12.00;99.90;;;;;;5031775;28;20400;-87
2021/12/30 07:58:01;;;;;;;3.38;0.80;;;12.00;99.90;;;;;;5023856;28;20095;-87
2021/12/30 08:00:27;;;;;;;1.60;0.57;;;12.00;99.90;;;;;;5006771;28;20037;-87
2021/12/30 08:02:52;;;;;;;0.70;0.43;;;12.10;99.90;;;;;;5044959;28;20392;-87
2021/12/30 08:05:20;;;;;;;0.77;0.57;;;12.10;99.90;;;;;;5038908;28;20048;-87
2021/12/30 08:07:49;;;;;;;1.38;0.65;;;12.10;99.90;;;;;;5055716;28;20115;-87
2021/12/30 08:10:18;;;;;;;2.63;0.68;;;12.10;99.90;;;;;;5022152;28;20043;-87
2021/12/30 08:12:47;;;;;;;0.63;0.60;;;12.10;99.90;;;;;;5036234;28;20033;-88
2021/12/30 08:15:14;;;;;;;2.03;0.80;;;12.10;99.90;;;;;;5024578;28;20052;-87
2021/12/30 08:17:41;;;;;;;0.80;0.57;;;12.20;99.90;;;;;;5054909;28;20032;-87
2021/12/30 08:20:08;;;;;;;1.05;0.70;;;12.20;99.90;;;;;;5038339;28;20074;-86
2021/12/30 08:22:35;;;;;;;0.95;0.85;;;12.20;99.90;;;;;;5036468;28;20025;-87
2021/12/30 08:25:01;;;;;;;0.90;0.63;;;12.20;99.90;;;;;;5036762;28;20261;-87
2021/12/30 08:27:27;;;;;;;2.40;0.88;;;12.30;99.90;;;;;;5046028;28;20029;-87
2021/12/30 08:29:52;;;;;;;0.70;0.60;;;12.30;99.90;;;;;;5042956;28;20040;-87
2021/12/30 08:32:18;;;;;;;1.08;0.70;;;12.30;99.90;;;;;;5007485;28;20037;-87
2021/12/30 08:34:45;;;;;;;0.55;0.55;;;12.30;99.90;;;;;;5034958;28;20374;-87
2021/12/30 08:37:12;;;;;;;0.60;0.52;;;12.40;99.90;;;;;;5035557;28;20040;-87
2021/12/30 08:39:42;;;;;;;1.73;0.80;;;12.40;99.90;;;;;;5041216;28;20047;-87
2021/12/30 08:42:37;;;;;;;0.52;0.47;;;12.40;99.90;;;;;;5070180;28;20021;-87
2021/12/30 08:45:04;;;;;;;0.60;0.57;;;12.40;99.90;;;;;;5003659;28;20037;-87
2021/12/30 08:47:33;;;;;;;1.05;0.47;;;12.40;99.90;;;;;;5018648;28;20067;-87
2021/12/30 08:49:59;;;;;;;0.50;0.43;;;12.40;99.90;;;;;;5043920;28;20027;-86
2021/12/30 08:52:29;;;;;;;0.60;0.50;;;12.40;99.90;;;;;;5046127;28;20063;-87
2021/12/30 08:54:59;;;;;;;0.50;0.40;;;12.50;99.90;;;;;;5030263;28;20049;-87
2021/12/30 08:57:25;;;;;;;0.40;0.40;;;12.50;99.90;;;;;;5033011;28;20068;-87
2021/12/30 08:59:51;;;;;;;1.75;0.40;;;12.50;99.90;;;;;;5042316;28;20064;-87
2021/12/30 09:02:20;;;;;;;1.98;0.60;;;12.50;99.90;;;;;;5038934;28;20382;-87
2021/12/30 09:04:46;;;;;;;0.98;0.50;;;12.50;99.90;;;;;;5035313;28;20025;-87
2021/12/30 09:07:15;;;;;;;0.68;0.55;;;12.40;99.90;;;;;;5019231;28;20041;-87
2021/12/30 09:09:41;;;;;;;0.60;0.50;;;12.50;99.90;;;;;;5035157;28;20047;-87
2021/12/30 09:12:13;;;;;;;1.70;0.60;;;12.40;99.90;;;;;;5017490;28;20028;-87
2021/12/30 09:14:39;;;;;;;0.60;0.57;;;12.40;99.90;;;;;;5067738;28;20049;-87
2021/12/30 09:17:05;;;;;;;0.40;0.40;;;12.40;99.90;;;;;;4999003;28;20069;-87
2021/12/30 09:19:31;;;;;;;0.65;0.43;;;12.40;99.90;;;;;;5048500;28;20493;-87
2021/12/30 09:21:57;;;;;;;0.60;0.60;;;12.40;99.90;;;;;;5035794;28;20077;-87
2021/12/30 09:24:26;;;;;;;0.60;0.60;;;12.40;99.90;;;;;;5034931;28;20059;-87
2021/12/30 09:26:52;;;;;;;2.33;0.60;;;12.40;99.90;;;;;;5035855;28;20029;-88
2021/12/30 09:29:18;;;;;;;0.38;0.38;;;12.50;99.90;;;;;;5002995;28;20167;-88
2021/12/30 09:31:48;;;;;;;0.52;0.52;;;12.50;99.90;;;;;;5019453;28;20048;-87
2021/12/30 09:34:14;;;;;;;0.87;0.77;;;12.50;99.90;;;;;;5055279;28;20024;-87
2021/12/30 09:36:49;;;;;;;1.35;0.93;;;12.50;99.90;;;;;;5054192;28;20017;-87
2021/12/30 09:39:18;;;;;;;1.17;0.70;;;12.40;99.90;;;;;;5021405;28;20036;-87
2021/12/30 09:41:45;;;;;;;0.70;0.60;;;12.50;99.90;;;;;;5073290;28;20029;-86
2021/12/30 09:44:22;;;;;;;0.70;0.70;;;12.50;99.90;;;;;;5055177;28;20028;-87
2021/12/30 09:46:49;;;;;;;1.65;0.80;;;12.50;99.90;;;;;;5039371;28;20082;-86
2021/12/30 09:49:18;;;;;;;1.50;0.70;;;12.50;99.90;;;;;;5038718;28;20408;-87
2021/12/30 09:51:44;;;;;;;0.90;0.70;;;12.50;99.90;;;;;;5023944;28;20041;-86
2021/12/30 09:54:12;;;;;;;1.85;0.70;;;12.50;99.90;;;;;;5051253;28;20029;-86
2021/12/30 09:56:39;;;;;;;1.25;0.60;;;12.50;99.90;;;;;;5016164;28;20036;-88
2021/12/30 09:59:06;;;;;;;0.60;0.60;;;12.50;99.90;;;;;;5033186;28;20692;-87
2021/12/30 10:01:34;;;;;;;0.95;0.77;;;12.50;99.90;;;;;;5053106;28;20107;-87
2021/12/30 10:04:02;;;;;;;1.35;0.73;;;12.50;99.90;;;;;;5035776;28;20485;-85
2021/12/30 10:06:32;;;;;;;1.02;0.80;;;12.50;99.90;;;;;;5016156;28;20104;-84
2021/12/30 10:09:02;;;;;;;1.70;0.70;;;12.50;99.90;;;;;;5016433;28;20039;-85
2021/12/30 10:11:27;;;;;;;0.60;0.60;;;12.50;99.90;;;;;;5013692;28;20466;-84
2021/12/30 10:14:00;;;;;;;1.45;0.75;;;12.50;99.90;;;;;;5012899;28;20057;-85
2021/12/30 10:16:27;;;;;;;0.90;0.70;;;12.50;99.90;;;;;;5012382;28;20103;-85
2021/12/30 10:18:58;;;;;;;0.93;0.75;;;12.50;99.90;;;;;;5013414;28;20510;-85
2021/12/30 10:21:36;;;;;;;0.70;0.70;;;12.50;99.90;;;;;;5042154;28;20025;-84
2021/12/30 10:24:08;;;;;;;3.70;0.98;;;12.60;99.90;;;;;;5016235;28;20090;-86
2021/12/30 10:26:55;;;;;;;0.60;0.60;;;12.60;99.90;;;;;;5024514;28;20678;-85
2021/12/30 10:29:21;;;;;;;0.60;0.60;;;12.60;99.90;;;;;;5016245;28;20468;-86
2021/12/30 10:31:48;;;;;;;0.70;0.70;;;12.60;99.90;;;;;;5016194;28;20124;-85
2021/12/30 10:34:17;;;;;;;0.88;0.60;;;12.60;99.90;;;;;;5015314;28;20048;-87
2021/12/30 10:36:45;;;;;;;0.50;0.50;;;12.70;99.90;;;;;;5015591;28;20029;-85
2021/12/30 10:39:32;;;;;;;3.20;0.63;;;12.70;99.90;;;;;;5035571;28;20370;-86
2021/12/30 10:42:10;;;;;;;0.77;0.73;;;12.70;99.90;;;;;;5052274;28;20025;-85
2021/12/30 10:44:52;;;;;;;1.20;0.77;;;12.70;99.90;;;;;;5043655;28;20029;-85
2021/12/30 10:47:20;;;;;;;1.10;0.93;;;12.60;99.90;;;;;;5046065;28;20443;-86
2021/12/30 10:50:07;;;;;;;2.38;0.77;;;12.70;99.90;;;;;;5037134;28;20485;-86
2021/12/30 10:52:33;;;;;;;2.97;0.77;;;12.70;99.90;;;;;;5040604;28;20032;-87
2021/12/30 10:55:10;;;;;;;0.73;0.70;;;12.70;99.90;;;;;;5018503;28;20446;-87
2021/12/30 10:57:39;;;;;;;2.97;0.75;;;12.80;99.90;;;;;;5070159;28;20104;-86
2021/12/30 11:00:08;;;;;;;5.10;1.00;;;12.80;99.90;;;;;;5034980;28;20052;-86
2021/12/30 11:02:34;;;;;;;0.70;0.70;;;12.80;99.90;;;;;;5032256;28;20032;-85
2021/12/30 11:05:10;;;;;;;0.90;0.77;;;12.80;99.90;;;;;;5049743;28;20154;-85
2021/12/30 11:07:43;;;;;;;1.00;0.80;;;12.80;99.90;;;;;;4998492;28;20091;-86
2021/12/30 11:10:11;;;;;;;1.58;0.75;;;12.80;99.90;;;;;;5002587;28;20585;-86
2021/12/30 11:12:44;;;;;;;0.80;0.70;;;12.80;99.90;;;;;;5035645;28;20036;-86
2021/12/30 11:15:23;;;;;;;0.90;0.80;;;12.90;99.90;;;;;;5028523;28;20419;-86
2021/12/30 11:17:50;;;;;;;1.03;0.90;;;12.90;99.90;;;;;;5055780;28;20503;-86
2021/12/30 11:20:20;;;;;;;2.60;0.98;;;12.90;99.90;;;;;;5055760;28;20116;-86
2021/12/30 11:22:49;;;;;;;2.75;0.70;;;12.80;99.90;;;;;;5038921;28;20074;-85
2021/12/30 11:25:20;;;;;;;1.52;1.15;;;12.90;99.90;;;;;;5073316;28;20028;-86
2021/12/30 11:27:46;;;;;;;1.17;0.85;;;12.90;99.90;;;;;;5026618;28;20024;-85
2021/12/30 11:30:18;;;;;;;1.27;0.93;;;12.90;99.90;;;;;;5029642;28;20029;-86
2021/12/30 11:32:49;;;;;;;0.82;0.75;;;12.90;99.90;;;;;;5018507;28;20033;-86
2021/12/30 11:35:17;;;;;;;1.23;0.80;;;12.90;99.90;;;;;;5018619;28;20032;-85
2021/12/30 11:37:45;;;;;;;2.78;1.00;;;12.90;99.90;;;;;;5034574;28;20029;-85
2021/12/30 11:40:13;;;;;;;1.92;1.15;;;12.90;99.90;;;;;;5019010;28;20116;-85
2021/12/30 11:42:44;;;;;;;1.45;1.15;;;12.90;99.90;;;;;;5035425;28;20025;-85
2021/12/30 11:45:29;;;;;;;5.30;1.10;;;12.90;99.90;;;;;;5037064;28;20135;-85
2021/12/30 11:48:03;;;;;;;1.95;1.70;;;13.00;99.90;;;;;;5034483;28;20465;-85
2021/12/30 11:50:35;;;;;;;1.50;0.88;;;13.00;99.90;;;;;;5036523;28;20025;-85
2021/12/30 11:53:03;;;;;;;1.85;0.77;;;13.00;99.90;;;;;;5053095;28;20033;-86
2021/12/30 11:56:01;;;;;;;1.85;1.20;;;13.00;99.90;;;;;;5072458;28;20082;-85
2021/12/30 12:01:25;;;;;;;2.67;0.98;;;13.00;99.90;;;;;;5062440;28;20036;-86
2021/12/30 12:03:54;;;;;;;1.00;0.82;;;13.10;99.90;;;;;;5013948;28;20128;-86
2021/12/30 12:06:28;;;;;;;1.60;0.95;;;13.10;99.90;;;;;;5033028;28;20120;-86
2021/12/30 12:09:08;;;;;;;1.58;1.00;;;13.10;99.90;;;;;;5067060;28;20036;-86
2021/12/30 12:12:03;;;;;;;1.20;0.98;;;13.10;99.90;;;;;;5034118;28;20031;-85
2021/12/30 12:14:38;;;;;;;0.88;0.88;;;13.10;99.90;;;;;;5066351;28;20071;-86
2021/12/30 12:17:19;;;;;;;2.85;1.08;;;13.10;99.90;;;;;;5006322;28;20029;-86
2021/12/30 12:19:53;;;;;;;;;;;13.10;99.90;;;;;;5038347;28;20041;-86
2021/12/30 12:22:19;;;;;;;1.10;0.80;;;13.00;99.90;;;;;;5046712;28;20011;-85
2021/12/30 12:25:09;;;;;;;2.20;1.00;;;13.00;99.90;;;;;;5066670;28;20434;-86
2021/12/30 12:27:37;;;;;;;1.77;0.80;;;13.00;99.90;;;;;;5041707;28;20028;-85
2021/12/30 12:30:19;;;;;;;1.10;0.73;;;13.00;99.90;;;;;;5053671;28;20401;-86
2021/12/30 12:32:45;;;;;;;1.17;0.65;;;13.00;99.90;;;;;;5043366;28;20048;-86
2021/12/30 12:35:17;;;;;;;1.55;0.68;;;13.00;99.90;;;;;;5016652;28;20394;-86
2021/12/30 12:37:47;;;;;;;1.50;0.70;;;12.90;99.90;;;;;;5065195;28;20057;-86
2021/12/30 12:40:26;;;;;;;1.70;0.75;;;12.90;99.90;;;;;;5057131;28;20378;-86
2021/12/30 12:42:56;;;;;;;1.45;0.50;;;12.90;99.90;;;;;;5034261;28;20033;-86
2021/12/30 12:45:33;;;;;;;1.05;0.80;;;12.90;99.90;;;;;;5033278;28;20021;-86
2021/12/30 12:48:23;;;;;;;1.85;0.60;;;12.90;99.90;;;;;;5066075;28;20037;-86
2021/12/30 12:50:54;;;;;;;1.10;1.00;;;12.90;99.90;;;;;;5033607;28;20117;-86
2021/12/30 12:53:24;;;;;;;5.05;0.80;;;12.90;99.90;;;;;;5033862;28;20839;-86
2021/12/30 12:55:59;;;;;;;0.95;0.57;;;12.90;99.90;;;;;;5049999;28;20064;-85
2021/12/30 12:58:30;;;;;;;0.75;0.65;;;12.90;99.90;;;;;;5017768;28;20464;-85
2021/12/30 13:01:01;;;;;;;0.60;0.52;;;13.00;99.90;;;;;;5033288;28;20464;-85